Time;durP1;ratioP1;P1;durP2;ratioP2;P2;SDS_P1;SDS_P2;PMS_P1;PMS_P2;Temp;Humidity;BMP_temperature;BMP_pressure;BME280_temperature;BME280_humidity;BME280_pressure;Samples;Min_cycle;Max_cycle;Signal;HPM_P1;HPM_P2
2022/10/27 00:01:16;;;;;;;14.43;3.97;;;15.20;99.90;;;;;;5091899;28;20047;-68
2022/10/27 00:03:43;;;;;;;16.65;3.60;;;15.20;99.90;;;;;;5092141;28;20048;-68
2022/10/27 00:06:10;;;;;;;14.43;4.28;;;15.20;99.90;;;;;;5091810;28;20388;-69
2022/10/27 00:08:37;;;;;;;16.63;3.60;;;15.20;99.90;;;;;;5090647;28;20060;-69
2022/10/27 00:11:06;;;;;;;14.10;3.00;;;15.20;99.90;;;;;;5091726;28;20043;-68
2022/10/27 00:13:33;;;;;;;12.82;3.17;;;15.20;99.90;;;;;;5073462;28;20063;-69
2022/10/27 00:16:05;;;;;;;13.30;4.20;;;15.20;99.90;;;;;;5091423;28;20058;-68
2022/10/27 00:18:32;;;;;;;15.27;3.05;;;15.20;99.90;;;;;;5093668;28;20044;-69
2022/10/27 00:21:00;;;;;;;8.35;2.13;;;15.30;99.90;;;;;;5111737;28;20546;-68
2022/10/27 00:23:27;;;;;;;10.07;2.38;;;15.30;99.90;;;;;;5116802;28;20131;-68
2022/10/27 00:25:54;;;;;;;15.73;2.72;;;15.30;99.90;;;;;;5111995;28;20044;-68
2022/10/27 00:28:21;;;;;;;20.67;3.20;;;15.30;99.90;;;;;;5111941;28;20047;-68
2022/10/27 00:30:48;;;;;;;8.10;3.38;;;15.30;99.90;;;;;;5112063;28;20044;-68
2022/10/27 00:33:14;;;;;;;13.45;2.85;;;15.30;99.90;;;;;;5093583;28;20487;-69
2022/10/27 00:35:41;;;;;;;16.58;3.05;;;15.30;99.90;;;;;;5111802;28;20478;-68
2022/10/27 00:38:08;;;;;;;11.68;2.35;;;15.30;99.90;;;;;;5111913;28;20054;-69
2022/10/27 00:40:36;;;;;;;11.43;2.33;;;15.30;99.90;;;;;;5111570;28;20056;-69
2022/10/27 00:43:20;;;;;;;10.02;2.75;;;15.30;99.90;;;;;;5111661;28;20047;-69
2022/10/27 00:45:47;;;;;;;11.70;3.58;;;15.30;99.90;;;;;;5093306;28;20047;-69
2022/10/27 00:48:14;;;;;;;12.65;2.63;;;15.30;99.90;;;;;;5110290;28;20415;-68
2022/10/27 00:50:40;;;;;;;18.30;2.95;;;15.30;99.90;;;;;;5110908;28;20063;-69
2022/10/27 00:53:07;;;;;;;11.98;2.75;;;15.30;99.90;;;;;;5093145;28;20423;-69
2022/10/27 00:55:35;;;;;;;12.30;2.50;;;15.30;99.90;;;;;;5076282;28;20415;-69
2022/10/27 00:58:07;;;;;;;8.43;2.35;;;15.30;99.90;;;;;;5093105;28;20435;-69
2022/10/27 01:00:38;;;;;;;12.98;2.75;;;15.30;99.90;;;;;;5093442;28;20061;-68
2022/10/27 01:03:05;;;;;;;18.25;2.92;;;15.30;99.90;;;;;;5076968;28;20047;-68
2022/10/27 01:05:32;;;;;;;8.98;2.42;;;15.30;99.90;;;;;;5093385;28;20059;-68
2022/10/27 01:08:00;;;;;;;8.57;2.33;;;15.30;99.90;;;;;;5078057;28;20525;-68
2022/10/27 01:10:26;;;;;;;11.50;2.50;;;15.30;99.90;;;;;;5077197;28;20612;-68
2022/10/27 01:12:56;;;;;;;13.30;3.15;;;15.30;99.90;;;;;;5094267;28;20044;-68
2022/10/27 01:15:41;;;;;;;12.88;2.72;;;15.30;99.90;;;;;;5076713;28;20040;-68
2022/10/27 01:18:17;;;;;;;8.05;2.28;;;15.30;99.90;;;;;;5061395;28;20040;-69
2022/10/27 01:21:08;;;;;;;9.40;2.65;;;15.30;99.90;;;;;;5077487;28;20048;-69
2022/10/27 01:23:44;;;;;;;11.98;2.97;;;15.20;99.90;;;;;;5092490;28;20048;-69
2022/10/27 01:26:24;;;;;;;7.18;2.47;;;15.20;99.90;;;;;;5077117;28;20055;-69
2022/10/27 01:29:28;;;;;;;10.38;2.50;;;15.10;99.90;;;;;;5076903;28;20525;-69
2022/10/27 01:32:10;;;;;;;12.48;2.35;;;15.10;99.90;;;;;;5094752;28;20487;-69
2022/10/27 01:34:56;;;;;;;9.95;2.53;;;15.10;99.90;;;;;;5077665;28;20499;-69
2022/10/27 01:37:29;;;;;;;10.13;2.80;;;15.20;99.90;;;;;;5060830;28;20491;-68
2022/10/27 01:40:01;;;;;;;11.77;2.75;;;15.10;99.90;;;;;;5094621;28;20044;-68
2022/10/27 01:42:40;;;;;;;10.95;2.78;;;15.00;99.90;;;;;;5060510;28;20044;-68
2022/10/27 01:45:07;;;;;;;9.23;2.33;;;14.90;99.90;;;;;;5077262;28;20052;-67
2022/10/27 01:47:34;;;;;;;6.82;2.00;;;14.80;99.90;;;;;;5076304;28;20048;-68
2022/10/27 01:50:01;;;;;;;11.63;2.85;;;14.80;99.90;;;;;;5076517;28;20048;-67
2022/10/27 01:52:46;;;;;;;6.35;2.22;;;14.70;99.90;;;;;;5095002;28;20052;-68
2022/10/27 01:55:25;;;;;;;7.70;2.22;;;14.70;99.90;;;;;;5094565;28;20040;-68
2022/10/27 01:58:16;;;;;;;6.78;2.13;;;14.70;99.90;;;;;;5094089;28;20048;-68
2022/10/27 02:01:00;;;;;;;9.40;3.17;;;14.70;99.90;;;;;;5094125;28;20048;-68
2022/10/27 02:03:33;;;;;;;6.53;1.92;;;14.70;99.90;;;;;;5060309;28;20134;-68
2022/10/27 02:06:07;;;;;;;10.53;2.77;;;14.70;99.90;;;;;;5059859;28;20055;-68
2022/10/27 02:08:41;;;;;;;8.75;2.40;;;14.70;99.90;;;;;;5076330;28;20083;-68
2022/10/27 02:11:08;;;;;;;8.68;2.60;;;14.70;99.90;;;;;;5076595;28;20059;-68
2022/10/27 02:13:37;;;;;;;7.10;3.40;;;14.70;99.90;;;;;;5059505;28;20131;-67
2022/10/27 02:16:07;;;;;;;12.07;2.72;;;14.70;99.90;;;;;;5076360;28;20054;-68
2022/10/27 02:18:46;;;;;;;10.07;3.05;;;14.70;99.90;;;;;;5075682;28;20048;-68
2022/10/27 02:21:13;;;;;;;6.70;2.80;;;14.70;99.90;;;;;;5093438;28;20044;-68
2022/10/27 02:23:39;;;;;;;14.82;3.30;;;14.70;99.90;;;;;;5093779;28;20067;-67
2022/10/27 02:26:06;;;;;;;11.48;2.90;;;14.70;99.90;;;;;;5076081;28;20052;-68
2022/10/27 02:28:36;;;;;;;5.88;2.45;;;14.70;99.90;;;;;;5093850;28;20139;-68
2022/10/27 02:31:03;;;;;;;14.82;3.50;;;14.70;99.90;;;;;;5075950;28;20040;-68
2022/10/27 02:33:29;;;;;;;8.60;3.00;;;14.70;99.90;;;;;;5075785;28;20048;-69
2022/10/27 02:35:56;;;;;;;9.60;3.28;;;14.70;99.90;;;;;;5093422;28;20526;-68
2022/10/27 02:38:23;;;;;;;8.30;2.78;;;14.80;99.90;;;;;;5059125;28;20510;-68
2022/10/27 02:40:50;;;;;;;9.63;2.45;;;14.70;99.90;;;;;;5093459;28;20040;-68
2022/10/27 02:43:17;;;;;;;12.88;2.53;;;14.70;99.90;;;;;;5075533;28;20052;-68
2022/10/27 02:45:43;;;;;;;10.00;2.90;;;14.70;99.90;;;;;;5075245;28;20048;-68
2022/10/27 02:48:10;;;;;;;14.45;3.22;;;14.70;99.90;;;;;;5093482;28;20044;-68
2022/10/27 02:50:37;;;;;;;10.55;2.80;;;14.70;99.90;;;;;;5093046;28;20047;-68
2022/10/27 02:53:04;;;;;;;18.00;3.58;;;14.80;99.90;;;;;;5093281;28;20224;-69
2022/10/27 02:55:31;;;;;;;11.63;2.80;;;14.70;99.90;;;;;;5093218;28;20048;-68
2022/10/27 02:57:58;;;;;;;5.20;2.42;;;14.70;99.90;;;;;;5093106;28;20044;-68
2022/10/27 03:00:25;;;;;;;11.52;3.40;;;14.70;99.90;;;;;;5093365;28;20142;-68
2022/10/27 03:02:56;;;;;;;11.32;2.85;;;14.70;99.90;;;;;;5092905;28;20044;-67
2022/10/27 03:05:23;;;;;;;7.93;2.80;;;14.70;99.90;;;;;;5075312;28;20044;-67
2022/10/27 03:07:50;;;;;;;10.05;3.55;;;14.60;99.90;;;;;;5093083;28;20411;-68
2022/10/27 03:10:16;;;;;;;8.57;3.13;;;14.70;99.90;;;;;;5092928;28;20453;-67
2022/10/27 03:12:46;;;;;;;13.13;2.83;;;14.70;99.90;;;;;;5075010;28;20470;-67
2022/10/27 03:15:13;;;;;;;17.15;3.50;;;14.70;99.90;;;;;;5092887;28;20048;-70
2022/10/27 03:17:46;;;;;;;11.85;2.97;;;14.70;99.90;;;;;;5074660;28;20048;-67
2022/10/27 03:20:14;;;;;;;9.77;3.38;;;14.70;99.90;;;;;;5058423;28;20056;-69
2022/10/27 03:22:41;;;;;;;8.57;3.22;;;14.70;99.90;;;;;;5092559;28;20488;-68
2022/10/27 03:25:10;;;;;;;7.07;3.40;;;14.70;99.90;;;;;;5092833;28;20070;-69
2022/10/27 03:27:41;;;;;;;5.05;3.13;;;14.70;99.90;;;;;;5092653;28;20050;-67
2022/10/27 03:30:16;;;;;;;14.25;4.28;;;14.70;99.90;;;;;;5058659;28;20438;-67
2022/10/27 03:32:50;;;;;;;10.10;3.53;;;14.70;99.90;;;;;;5092369;28;20507;-67
2022/10/27 03:35:18;;;;;;;9.70;3.58;;;14.70;99.90;;;;;;5074293;28;20048;-67
2022/10/27 03:37:44;;;;;;;7.53;4.10;;;14.80;99.90;;;;;;5074576;28;20048;-68
2022/10/27 03:40:11;;;;;;;7.90;3.35;;;14.80;99.90;;;;;;5093176;28;20048;-68
2022/10/27 03:42:41;;;;;;;10.55;2.97;;;14.80;99.90;;;;;;5074234;28;20513;-68
2022/10/27 03:45:09;;;;;;;6.88;2.40;;;14.80;99.90;;;;;;5092740;28;20048;-68
2022/10/27 03:47:36;;;;;;;9.35;3.08;;;14.80;99.90;;;;;;5092463;28;20048;-68
2022/10/27 03:50:03;;;;;;;9.60;3.33;;;14.80;99.90;;;;;;5092906;28;20088;-67
2022/10/27 03:52:30;;;;;;;7.15;2.55;;;14.80;99.90;;;;;;5074949;28;20046;-68
2022/10/27 03:54:59;;;;;;;8.10;2.55;;;14.70;99.90;;;;;;5097115;28;20056;-68
2022/10/27 03:57:25;;;;;;;9.95;2.80;;;14.80;99.90;;;;;;5082202;28;20131;-68
2022/10/27 03:59:52;;;;;;;8.82;2.83;;;14.80;99.90;;;;;;5100899;28;20447;-68
2022/10/27 04:02:19;;;;;;;13.65;2.63;;;14.80;99.90;;;;;;5100366;28;20044;-68
2022/10/27 04:04:46;;;;;;;9.88;2.45;;;14.80;99.90;;;;;;5088697;28;20040;-68
2022/10/27 04:07:12;;;;;;;7.75;2.20;;;14.80;99.90;;;;;;5096073;28;20059;-68
2022/10/27 04:09:39;;;;;;;9.30;3.22;;;14.80;99.90;;;;;;5082552;28;20070;-68
2022/10/27 04:12:06;;;;;;;8.85;2.45;;;14.90;99.90;;;;;;5099859;28;20051;-68
2022/10/27 04:14:32;;;;;;;6.90;2.10;;;14.90;99.90;;;;;;5100311;28;20445;-68
2022/10/27 04:16:59;;;;;;;6.35;1.90;;;14.90;99.90;;;;;;5084668;28;20071;-68
2022/10/27 04:19:26;;;;;;;8.60;2.75;;;14.90;99.90;;;;;;5118517;28;20058;-68
2022/10/27 04:21:53;;;;;;;8.38;2.55;;;15.00;99.90;;;;;;5118888;28;20111;-68
2022/10/27 04:24:20;;;;;;;6.30;1.80;;;14.90;99.90;;;;;;5118864;28;20411;-68
2022/10/27 04:26:46;;;;;;;14.88;2.67;;;15.00;99.90;;;;;;5100301;28;20060;-68
2022/10/27 04:29:13;;;;;;;2.88;2.22;;;15.00;99.90;;;;;;5118848;28;20048;-68
2022/10/27 04:31:40;;;;;;;13.05;2.67;;;15.00;99.90;;;;;;5119095;28;20044;-68
2022/10/27 04:34:06;;;;;;;7.40;2.17;;;15.00;99.90;;;;;;5100850;28;20505;-68
2022/10/27 04:36:33;;;;;;;5.78;2.08;;;15.00;99.90;;;;;;5118307;28;20054;-68
2022/10/27 04:39:00;;;;;;;10.07;2.35;;;15.00;99.90;;;;;;5118463;28;20047;-68
2022/10/27 04:41:26;;;;;;;8.35;2.40;;;15.00;99.90;;;;;;5115245;28;20050;-68
2022/10/27 04:43:53;;;;;;;9.27;2.75;;;15.00;99.90;;;;;;5111631;28;20048;-68
2022/10/27 04:46:20;;;;;;;13.95;2.90;;;15.00;99.90;;;;;;5111691;28;20050;-68
2022/10/27 04:48:47;;;;;;;11.00;2.90;;;15.00;99.90;;;;;;5112322;28;20051;-68
2022/10/27 04:51:13;;;;;;;7.95;2.95;;;15.00;99.90;;;;;;5093790;28;20513;-68
2022/10/27 04:53:46;;;;;;;10.00;2.90;;;15.00;99.90;;;;;;5111914;28;20040;-68
2022/10/27 04:56:12;;;;;;;12.23;2.83;;;15.00;99.90;;;;;;5111786;28;20043;-68
2022/10/27 04:58:39;;;;;;;5.70;2.25;;;15.00;99.90;;;;;;5093772;28;20564;-68
2022/10/27 05:01:10;;;;;;;11.27;3.03;;;15.00;99.90;;;;;;5111603;28;20445;-68
2022/10/27 05:03:36;;;;;;;11.25;2.80;;;15.00;99.90;;;;;;5111980;28;20098;-68
2022/10/27 05:06:03;;;;;;;12.43;2.58;;;15.00;99.90;;;;;;5111603;28;20058;-68
2022/10/27 05:08:30;;;;;;;7.00;2.40;;;15.00;99.90;;;;;;5111703;28;20067;-69
2022/10/27 05:10:57;;;;;;;5.25;2.38;;;15.00;99.90;;;;;;5111467;28;20503;-70
2022/10/27 05:13:23;;;;;;;8.20;2.60;;;15.00;99.90;;;;;;5111615;28;20491;-68
2022/10/27 05:15:50;;;;;;;8.15;2.60;;;15.00;99.90;;;;;;5111121;28;20533;-67
2022/10/27 05:18:17;;;;;;;6.00;2.13;;;15.00;99.90;;;;;;5111823;28;20047;-69
2022/10/27 05:20:44;;;;;;;8.57;1.83;;;14.90;99.90;;;;;;5111317;28;20418;-69
2022/10/27 05:23:11;;;;;;;3.72;1.85;;;14.90;99.90;;;;;;5111208;28;20043;-69
2022/10/27 05:25:37;;;;;;;3.42;1.70;;;14.90;99.90;;;;;;5111260;28;20044;-70
2022/10/27 05:28:05;;;;;;;9.57;2.15;;;14.90;99.90;;;;;;5111188;28;20105;-70
2022/10/27 05:30:32;;;;;;;9.80;2.03;;;14.90;99.90;;;;;;5093380;28;20062;-70
2022/10/27 05:32:59;;;;;;;7.45;2.03;;;14.90;99.90;;;;;;5111568;28;20558;-69
2022/10/27 05:35:26;;;;;;;5.90;1.90;;;14.90;99.90;;;;;;5111557;28;20056;-70
2022/10/27 05:37:52;;;;;;;10.55;2.60;;;14.90;99.90;;;;;;5111334;28;20048;-70
2022/10/27 05:40:19;;;;;;;6.18;1.73;;;14.90;99.90;;;;;;5092826;28;20056;-68
2022/10/27 05:42:53;;;;;;;5.30;1.83;;;14.90;99.90;;;;;;5090890;28;20479;-69
2022/10/27 05:45:22;;;;;;;12.70;1.98;;;14.90;99.90;;;;;;5091250;28;20473;-70
2022/10/27 05:47:56;;;;;;;5.65;1.90;;;14.90;99.90;;;;;;5073176;28;20052;-69
2022/10/27 05:50:22;;;;;;;4.13;1.65;;;14.90;99.90;;;;;;5056447;28;20618;-69
2022/10/27 05:52:49;;;;;;;5.55;1.67;;;14.90;99.90;;;;;;5090929;28;20048;-69
2022/10/27 05:55:16;;;;;;;5.65;2.15;;;15.00;99.90;;;;;;5091862;28;20256;-69
2022/10/27 05:57:52;;;;;;;12.00;2.47;;;15.00;99.90;;;;;;5094069;28;20483;-68
2022/10/27 06:00:19;;;;;;;5.90;2.00;;;15.00;99.90;;;;;;5076541;28;20048;-70
2022/10/27 06:02:48;;;;;;;11.98;1.98;;;15.00;99.90;;;;;;5094719;28;20097;-68
2022/10/27 06:05:15;;;;;;;9.55;1.80;;;15.00;99.90;;;;;;5094353;28;20411;-68
2022/10/27 06:07:42;;;;;;;5.07;1.63;;;15.00;99.90;;;;;;5059466;28;20487;-68
2022/10/27 06:10:09;;;;;;;12.75;2.40;;;15.10;99.90;;;;;;5077731;28;20044;-68
2022/10/27 06:12:35;;;;;;;13.52;1.88;;;15.10;99.90;;;;;;5094380;28;20052;-70
2022/10/27 06:15:02;;;;;;;9.60;2.10;;;15.20;99.90;;;;;;5093881;28;20517;-69
2022/10/27 06:17:29;;;;;;;9.57;2.00;;;15.20;99.90;;;;;;5093984;28;20047;-70
2022/10/27 06:19:56;;;;;;;12.10;2.50;;;15.30;99.90;;;;;;5093923;28;20415;-68
2022/10/27 06:22:23;;;;;;;11.18;3.30;;;15.30;99.90;;;;;;5075773;28;20040;-68
2022/10/27 06:24:49;;;;;;;5.50;1.90;;;15.30;99.90;;;;;;5094032;28;20044;-68
2022/10/27 06:27:16;;;;;;;4.20;1.63;;;15.40;99.90;;;;;;5059516;28;20506;-68
2022/10/27 06:29:43;;;;;;;8.10;2.00;;;15.40;99.90;;;;;;5094794;28;20411;-67
2022/10/27 06:32:10;;;;;;;5.15;1.60;;;15.50;99.90;;;;;;5094228;28;20044;-69
2022/10/27 06:34:36;;;;;;;7.55;1.60;;;15.50;99.90;;;;;;5093417;28;20075;-68
2022/10/27 06:37:04;;;;;;;10.90;1.63;;;15.50;99.90;;;;;;5075279;28;20280;-69
2022/10/27 06:39:31;;;;;;;3.38;1.40;;;15.50;99.90;;;;;;5093294;28;20052;-68
2022/10/27 06:41:58;;;;;;;3.75;1.65;;;15.60;99.90;;;;;;5073042;28;20056;-68
2022/10/27 06:44:25;;;;;;;10.93;1.95;;;15.60;99.90;;;;;;5071820;28;20085;-68
2022/10/27 06:46:51;;;;;;;4.47;2.33;;;15.60;99.90;;;;;;4719028;28;10000127;-69
2022/10/27 06:49:18;;;;;;;9.30;1.67;;;15.70;99.90;;;;;;5069141;28;20047;-69
2022/10/27 06:51:45;;;;;;;9.05;2.83;;;15.70;99.90;;;;;;5051303;28;20329;-68
2022/10/27 06:54:11;;;;;;;9.40;1.70;;;15.70;99.90;;;;;;5068670;28;20052;-68
2022/10/27 06:56:38;;;;;;;9.30;1.92;;;15.70;99.90;;;;;;5069117;28;20148;-68
2022/10/27 06:59:05;;;;;;;10.05;1.65;;;15.70;99.90;;;;;;5051438;28;20416;-68
2022/10/27 07:01:32;;;;;;;10.45;2.00;;;15.80;99.90;;;;;;5069266;28;20049;-68
2022/10/27 07:03:58;;;;;;;6.00;1.95;;;15.70;99.90;;;;;;5069338;28;20048;-68
2022/10/27 07:06:25;;;;;;;10.75;1.73;;;15.80;99.90;;;;;;5068357;28;20553;-68
2022/10/27 07:08:52;;;;;;;6.60;1.73;;;15.80;99.90;;;;;;5051412;28;20139;-69
2022/10/27 07:11:19;;;;;;;8.30;2.10;;;15.80;99.90;;;;;;5068715;28;20048;-68
2022/10/27 07:13:46;;;;;;;6.18;1.75;;;15.80;99.90;;;;;;5068602;28;20059;-68
2022/10/27 07:16:12;;;;;;;8.50;1.75;;;15.80;99.90;;;;;;5069029;28;20062;-67
2022/10/27 07:18:39;;;;;;;8.73;2.13;;;15.80;99.90;;;;;;5068724;28;20059;-68
2022/10/27 07:21:06;;;;;;;9.63;1.33;;;15.70;99.90;;;;;;5070202;28;20044;-68
2022/10/27 07:23:33;;;;;;;8.23;2.47;;;15.70;99.90;;;;;;5069027;28;20056;-68
2022/10/27 07:26:00;;;;;;;12.82;2.70;;;15.70;99.90;;;;;;5069899;28;20045;-67
2022/10/27 07:28:27;;;;;;;10.95;3.35;;;15.70;99.90;;;;;;5085659;28;20463;-67
2022/10/27 07:30:54;;;;;;;9.73;2.22;;;15.70;99.90;;;;;;5084489;28;20051;-66
2022/10/27 07:33:21;;;;;;;9.90;2.72;;;15.70;99.90;;;;;;5070446;28;20084;-66
2022/10/27 07:35:49;;;;;;;9.55;2.05;;;15.70;99.90;;;;;;5070417;28;20411;-67
2022/10/27 07:38:15;;;;;;;9.15;2.40;;;15.70;99.90;;;;;;5063641;28;20040;-68
2022/10/27 07:40:42;;;;;;;7.25;2.20;;;15.70;99.90;;;;;;5050996;28;20056;-67
2022/10/27 07:43:09;;;;;;;7.88;2.13;;;15.70;99.90;;;;;;5050599;28;20479;-68
2022/10/27 07:45:37;;;;;;;10.57;2.47;;;15.80;99.90;;;;;;5077640;28;20052;-67
2022/10/27 07:48:04;;;;;;;9.00;1.77;;;15.80;99.90;;;;;;5088336;28;20080;-67
2022/10/27 07:50:32;;;;;;;8.77;2.55;;;15.80;99.90;;;;;;5071131;28;20058;-67
2022/10/27 07:52:59;;;;;;;9.60;2.97;;;15.80;99.90;;;;;;5088049;28;20052;-67
2022/10/27 07:55:27;;;;;;;9.00;2.03;;;15.90;99.90;;;;;;5090588;28;20406;-67
2022/10/27 07:58:00;;;;;;;6.60;1.98;;;15.90;99.90;;;;;;5107118;28;20047;-67
2022/10/27 08:00:28;;;;;;;7.95;2.10;;;15.90;99.90;;;;;;5087703;28;20148;-67
2022/10/27 08:02:54;;;;;;;6.70;1.92;;;15.90;99.90;;;;;;5105999;28;20050;-67
2022/10/27 08:05:21;;;;;;;5.88;1.90;;;15.90;99.90;;;;;;5105871;28;20070;-67
2022/10/27 08:07:48;;;;;;;5.65;1.60;;;15.90;99.90;;;;;;5105002;28;20082;-67
2022/10/27 08:10:15;;;;;;;7.03;1.58;;;16.00;99.90;;;;;;5106607;28;20498;-67
2022/10/27 08:12:43;;;;;;;11.98;2.17;;;16.00;99.90;;;;;;5106189;28;20053;-67
2022/10/27 08:15:10;;;;;;;7.72;2.03;;;16.10;99.90;;;;;;5107947;28;20442;-66
2022/10/27 08:17:37;;;;;;;9.63;2.28;;;16.00;99.90;;;;;;5106705;28;20054;-67
2022/10/27 08:20:06;;;;;;;7.70;2.40;;;16.10;99.90;;;;;;5122071;27;20436;-67
2022/10/27 08:22:32;;;;;;;17.25;2.10;;;16.10;99.90;;;;;;5112801;27;20047;-67
2022/10/27 08:24:59;;;;;;;8.18;1.92;;;16.10;99.90;;;;;;5107988;28;20055;-67
2022/10/27 08:27:31;;;;;;;6.78;2.08;;;16.10;99.90;;;;;;5108055;28;20047;-66
2022/10/27 08:29:58;;;;;;;9.88;1.83;;;16.10;99.90;;;;;;5089622;28;20549;-67
2022/10/27 08:32:25;;;;;;;5.20;2.33;;;16.10;99.90;;;;;;5108438;28;20046;-67
2022/10/27 08:34:51;;;;;;;14.00;2.28;;;16.10;99.90;;;;;;5108825;28;20052;-67
2022/10/27 08:37:18;;;;;;;13.52;2.83;;;16.20;99.90;;;;;;5108690;28;20043;-67
2022/10/27 08:39:45;;;;;;;9.35;3.08;;;16.20;99.90;;;;;;5107751;28;20051;-67
2022/10/27 08:42:16;;;;;;;15.13;3.28;;;16.40;99.90;;;;;;5115961;28;20058;-68
2022/10/27 08:44:58;;;;;;;5.28;1.80;;;16.60;99.90;;;;;;5090081;28;20047;-68
2022/10/27 08:47:28;;;;;;;12.52;2.60;;;16.70;99.90;;;;;;5071184;28;20052;-69
2022/10/27 08:50:04;;;;;;;14.15;3.67;;;16.80;99.90;;;;;;5055102;28;20052;-68
2022/10/27 08:52:53;;;;;;;14.13;2.88;;;16.90;99.90;;;;;;5072540;28;20044;-69
2022/10/27 08:55:28;;;;;;;8.63;2.70;;;17.00;99.90;;;;;;5076061;28;20441;-69
2022/10/27 08:57:59;;;;;;;10.95;2.45;;;17.10;99.90;;;;;;5059634;28;20050;-69
2022/10/27 09:00:28;;;;;;;17.70;3.97;;;17.00;99.90;;;;;;5070800;28;20044;-68
2022/10/27 09:02:59;;;;;;;13.98;2.70;;;17.00;99.90;;;;;;5053847;28;20048;-68
2022/10/27 09:05:43;;;;;;;13.20;3.28;;;17.10;99.90;;;;;;5088110;28;20048;-69
2022/10/27 09:08:25;;;;;;;7.95;2.72;;;17.10;99.90;;;;;;5070995;28;20048;-68
2022/10/27 09:10:54;;;;;;;13.77;3.30;;;17.10;99.90;;;;;;5070444;28;20044;-68
2022/10/27 09:13:38;;;;;;;15.27;2.67;;;17.20;99.90;;;;;;5088271;28;20044;-68
2022/10/27 09:16:05;;;;;;;12.18;2.95;;;17.10;99.90;;;;;;5071523;28;20394;-68
2022/10/27 09:18:38;;;;;;;14.00;2.35;;;17.20;99.90;;;;;;5069991;28;20214;-68
2022/10/27 09:21:09;;;;;;;14.35;3.20;;;17.20;99.90;;;;;;5054361;28;20087;-69
2022/10/27 09:23:57;;;;;;;13.60;3.13;;;17.20;99.90;;;;;;5070095;28;20058;-68
2022/10/27 09:26:29;;;;;;;5.50;2.35;;;17.20;99.90;;;;;;5083414;28;20135;-68
2022/10/27 09:28:56;;;;;;;14.02;3.22;;;17.20;99.90;;;;;;5074744;28;20701;-68
2022/10/27 09:31:27;;;;;;;9.02;3.05;;;17.30;99.90;;;;;;5094426;28;20044;-68
2022/10/27 09:33:58;;;;;;;15.95;3.42;;;17.40;99.90;;;;;;5077941;28;20052;-68
2022/10/27 09:36:25;;;;;;;15.35;2.90;;;17.40;99.90;;;;;;5077220;28;20052;-68
2022/10/27 09:38:51;;;;;;;10.13;2.35;;;17.50;99.90;;;;;;5112560;28;20150;-68
2022/10/27 09:41:18;;;;;;;15.60;2.92;;;17.60;99.90;;;;;;5112565;28;20592;-68
2022/10/27 09:43:54;;;;;;;16.60;2.85;;;17.60;99.90;;;;;;5112190;28;20848;-68
2022/10/27 09:46:28;;;;;;;12.98;3.78;;;17.70;99.90;;;;;;5078165;28;20566;-68
2022/10/27 09:49:03;;;;;;;10.95;2.78;;;17.70;99.90;;;;;;5074419;28;20052;-69
2022/10/27 09:51:45;;;;;;;13.38;3.20;;;17.80;99.90;;;;;;5058396;28;20051;-69
2022/10/27 09:54:27;;;;;;;9.80;2.92;;;17.90;99.90;;;;;;5073582;28;20047;-69
2022/10/27 09:56:54;;;;;;;8.82;3.08;;;18.00;99.90;;;;;;5073815;28;20051;-68
2022/10/27 09:59:21;;;;;;;11.23;2.85;;;18.00;99.90;;;;;;5074275;28;20044;-68
2022/10/27 10:01:56;;;;;;;10.10;3.13;;;18.10;99.90;;;;;;5057424;28;20054;-68
2022/10/27 10:04:31;;;;;;;30.67;3.70;;;18.20;99.90;;;;;;5058308;28;20519;-67
2022/10/27 10:07:03;;;;;;;10.95;2.65;;;18.20;99.90;;;;;;5073570;28;20055;-68
2022/10/27 10:09:33;;;;;;;10.23;2.38;;;18.30;99.90;;;;;;5073132;28;20050;-68
2022/10/27 10:12:23;;;;;;;11.18;2.85;;;18.40;99.90;;;;;;5074744;28;20050;-69
2022/10/27 10:15:11;;;;;;;14.05;2.97;;;18.40;99.90;;;;;;5071366;28;20040;-68
2022/10/27 10:18:10;;;;;;;13.60;2.88;;;18.50;99.90;;;;;;5088981;28;20058;-68
2022/10/27 10:20:41;;;;;;;10.75;2.88;;;18.60;99.90;;;;;;5068418;28;20047;-68
2022/10/27 10:23:21;;;;;;;16.85;3.03;;;18.80;99.90;;;;;;5055451;28;20087;-66
2022/10/27 10:25:49;;;;;;;18.63;3.45;;;18.90;99.90;;;;;;5055198;28;20059;-68
2022/10/27 10:28:40;;;;;;;13.60;3.03;;;18.90;99.90;;;;;;5088772;28;20048;-68
2022/10/27 10:31:09;;;;;;;20.23;3.22;;;19.00;99.90;;;;;;5089368;28;20094;-68
2022/10/27 10:33:40;;;;;;;7.38;3.22;;;19.10;99.90;;;;;;5055993;28;20079;-68
2022/10/27 10:36:18;;;;;;;14.77;2.88;;;19.10;99.90;;;;;;5072747;28;20044;-68
2022/10/27 10:38:49;;;;;;;14.77;2.65;;;19.10;99.90;;;;;;5055367;28;20058;-68
2022/10/27 10:41:16;;;;;;;16.25;2.42;;;19.20;99.90;;;;;;5088499;28;20060;-69
2022/10/27 10:43:43;;;;;;;10.93;2.85;;;19.20;99.90;;;;;;5092453;28;20051;-68
2022/10/27 10:46:21;;;;;;;11.52;2.47;;;19.30;99.90;;;;;;5083470;28;20054;-66
2022/10/27 10:48:55;;;;;;;21.50;3.25;;;19.30;99.90;;;;;;5095480;28;20079;-66
2022/10/27 10:51:43;;;;;;;8.35;2.28;;;19.40;99.90;;;;;;5095720;27;20146;-69
2022/10/27 10:54:41;;;;;;;7.70;2.08;;;19.40;99.90;;;;;;5095956;27;20049;-68
2022/10/27 10:57:37;;;;;;;12.63;2.38;;;19.40;99.90;;;;;;5103864;28;20050;-69
2022/10/27 11:00:05;;;;;;;9.90;2.72;;;19.40;99.90;;;;;;5073693;28;20054;-69
2022/10/27 11:02:32;;;;;;;13.10;2.45;;;19.40;99.90;;;;;;5094864;28;20044;-69
2022/10/27 11:05:23;;;;;;;13.43;2.50;;;19.50;99.90;;;;;;5072299;28;20051;-69
2022/10/27 11:07:54;;;;;;;10.02;3.13;;;19.50;99.90;;;;;;5059754;28;20056;-69
2022/10/27 11:10:30;;;;;;;9.75;3.10;;;19.60;99.90;;;;;;5092781;28;20048;-68
2022/10/27 11:13:17;;;;;;;9.68;2.25;;;19.60;99.90;;;;;;5074088;28;20048;-68
2022/10/27 11:15:58;;;;;;;5.30;2.05;;;19.60;99.90;;;;;;5082342;28;20050;-68
2022/10/27 11:18:42;;;;;;;13.63;2.20;;;19.70;99.90;;;;;;5095750;28;20046;-68
2022/10/27 11:21:54;;;;;;;11.05;3.13;;;19.70;99.90;;;;;;5080079;28;20048;-68
2022/10/27 11:24:28;;;;;;;10.10;2.25;;;19.70;99.90;;;;;;5095513;28;20139;-68
2022/10/27 11:27:11;;;;;;;8.68;2.13;;;19.80;99.90;;;;;;5088178;28;20066;-68
2022/10/27 11:29:46;;;;;;;6.18;2.20;;;19.70;99.90;;;;;;5069548;28;21026;-68
2022/10/27 11:32:32;;;;;;;8.60;2.20;;;19.70;99.90;;;;;;5086432;28;20047;-68
2022/10/27 11:35:10;;;;;;;10.95;3.58;;;19.80;99.90;;;;;;5103841;28;20474;-68
2022/10/27 11:38:06;;;;;;;10.40;2.42;;;19.80;99.90;;;;;;5091458;28;20081;-69
2022/10/27 11:40:56;;;;;;;6.50;2.20;;;19.80;99.90;;;;;;5087179;28;20467;-70
2022/10/27 11:43:38;;;;;;;7.55;1.90;;;19.90;99.90;;;;;;5091807;28;20048;-67
2022/10/27 11:46:24;;;;;;;10.30;2.85;;;19.90;99.90;;;;;;5076431;28;20586;-69
2022/10/27 11:48:51;;;;;;;18.50;3.22;;;20.00;99.90;;;;;;5075720;28;20048;-67
2022/10/27 11:51:27;;;;;;;12.27;2.92;;;20.00;99.90;;;;;;5109073;28;20047;-67
2022/10/27 11:53:55;;;;;;;12.63;1.98;;;20.00;99.90;;;;;;5103640;28;20123;-68
2022/10/27 11:56:31;;;;;;;6.50;1.80;;;20.00;99.90;;;;;;4737902;28;10000347;-68
2022/10/27 11:59:03;;;;;;;10.00;2.33;;;20.00;99.90;;;;;;5058701;28;20326;-67
2022/10/27 12:01:38;;;;;;;11.63;2.00;;;20.00;99.90;;;;;;5088281;28;20055;-68
2022/10/27 12:04:12;;;;;;;11.63;2.60;;;19.90;99.90;;;;;;5063717;28;20410;-69
2022/10/27 12:06:59;;;;;;;5.90;1.75;;;19.90;99.90;;;;;;5062066;28;20123;-68
2022/10/27 12:09:49;;;;;;;9.35;1.77;;;19.90;99.90;;;;;;5065924;28;20048;-69
2022/10/27 12:12:37;;;;;;;8.57;2.28;;;19.90;99.90;;;;;;5078195;28;20051;-68
2022/10/27 12:15:07;;;;;;;8.50;2.13;;;19.90;99.90;;;;;;5065904;28;20049;-67
2022/10/27 12:17:58;;;;;;;7.55;2.15;;;19.90;99.90;;;;;;5090126;28;20094;-70
2022/10/27 12:20:40;;;;;;;9.95;2.42;;;19.90;99.90;;;;;;5054788;28;20056;-69
2022/10/27 12:23:12;;;;;;;10.82;2.40;;;19.90;99.90;;;;;;5089655;28;20044;-70
2022/10/27 12:25:48;;;;;;;9.13;3.13;;;20.00;99.90;;;;;;5037165;28;20048;-69
2022/10/27 12:28:15;;;;;;;13.77;3.45;;;20.10;99.90;;;;;;5053240;28;20056;-67
2022/10/27 12:30:44;;;;;;;7.60;1.85;;;20.20;99.90;;;;;;5069016;28;20113;-69
2022/10/27 12:33:31;;;;;;;7.05;1.80;;;20.20;99.90;;;;;;5052975;28;20407;-67
2022/10/27 12:36:44;;;;;;;7.28;2.05;;;20.20;99.90;;;;;;5069938;28;20059;-68
2022/10/27 12:39:33;;;;;;;8.07;2.50;;;20.20;99.90;;;;;;5069152;28;20135;-68
2022/10/27 12:42:05;;;;;;;8.70;1.92;;;20.20;99.90;;;;;;5077619;28;20131;-66
2022/10/27 12:44:42;;;;;;;13.45;2.50;;;20.20;99.90;;;;;;5097661;28;20043;-67
2022/10/27 12:47:19;;;;;;;9.95;2.03;;;20.20;99.90;;;;;;5059793;28;20055;-67
2022/10/27 12:50:15;;;;;;;9.07;2.13;;;20.20;99.90;;;;;;5075921;28;20044;-67
2022/10/27 12:53:23;;;;;;;15.68;2.50;;;20.30;99.90;;;;;;5100924;28;20135;-67
2022/10/27 12:56:22;;;;;;;8.48;1.90;;;20.40;99.90;;;;;;5102924;28;20056;-65
2022/10/27 12:59:11;;;;;;;13.38;2.95;;;20.40;99.90;;;;;;5086619;28;20055;-67
2022/10/27 13:01:51;;;;;;;8.68;2.50;;;20.50;99.90;;;;;;5106166;28;20055;-68
2022/10/27 13:04:30;;;;;;;10.80;1.95;;;20.40;99.90;;;;;;5096187;28;20046;-69